sensor_id;sensor_type;location;lat;lon;timestamp;P1;durP1;ratioP1;P2;durP2;ratioP2
62903;SDS011;49000;50.698;13.322;2023-07-13T00:02:04;4.32;;;2.90;;
62903;SDS011;49000;50.698;13.322;2023-07-13T00:04:30;7.57;;;2.90;;
62903;SDS011;49000;50.698;13.322;2023-07-13T00:06:55;2.53;;;2.30;;
62903;SDS011;49000;50.698;13.322;2023-07-13T00:09:21;2.67;;;2.00;;
62903;SDS011;49000;50.698;13.322;2023-07-13T00:11:49;4.00;;;2.75;;
62903;SDS011;49000;50.698;13.322;2023-07-13T00:14:16;5.10;;;2.73;;
62903;SDS011;49000;50.698;13.322;2023-07-13T00:16:42;4.37;;;2.70;;
62903;SDS011;49000;50.698;13.322;2023-07-13T00:19:08;4.13;;;2.65;;
62903;SDS011;49000;50.698;13.322;2023-07-13T00:21:35;5.20;;;2.40;;
62903;SDS011;49000;50.698;13.322;2023-07-13T00:24:00;3.53;;;2.33;;
62903;SDS011;49000;50.698;13.322;2023-07-13T00:26:26;4.10;;;2.40;;
62903;SDS011;49000;50.698;13.322;2023-07-13T00:28:52;2.92;;;2.20;;
62903;SDS011;49000;50.698;13.322;2023-07-13T00:31:17;3.90;;;2.10;;
62903;SDS011;49000;50.698;13.322;2023-07-13T00:33:43;2.30;;;2.10;;
62903;SDS011;49000;50.698;13.322;2023-07-13T00:36:09;5.20;;;2.30;;
62903;SDS011;49000;50.698;13.322;2023-07-13T00:38:35;2.47;;;2.07;;
62903;SDS011;49000;50.698;13.322;2023-07-13T00:41:02;3.60;;;2.00;;
62903;SDS011;49000;50.698;13.322;2023-07-13T00:43:29;2.70;;;2.40;;
62903;SDS011;49000;50.698;13.322;2023-07-13T00:48:21;2.80;;;2.03;;
62903;SDS011;49000;50.698;13.322;2023-07-13T00:50:52;2.30;;;2.10;;
62903;SDS011;49000;50.698;13.322;2023-07-13T00:53:20;4.07;;;2.50;;
62903;SDS011;49000;50.698;13.322;2023-07-13T00:55:46;3.23;;;2.60;;
62903;SDS011;49000;50.698;13.322;2023-07-13T00:58:14;4.00;;;2.40;;
62903;SDS011;49000;50.698;13.322;2023-07-13T01:00:40;4.00;;;2.30;;
62903;SDS011;49000;50.698;13.322;2023-07-13T01:03:07;3.80;;;2.20;;
62903;SDS011;49000;50.698;13.322;2023-07-13T01:05:33;2.87;;;2.50;;
62903;SDS011;49000;50.698;13.322;2023-07-13T01:07:59;3.53;;;2.30;;
62903;SDS011;49000;50.698;13.322;2023-07-13T01:10:26;4.83;;;2.60;;
62903;SDS011;49000;50.698;13.322;2023-07-13T01:12:52;5.47;;;2.80;;
62903;SDS011;49000;50.698;13.322;2023-07-13T01:18:13;3.40;;;2.43;;
62903;SDS011;49000;50.698;13.322;2023-07-13T01:20:46;3.00;;;2.23;;
62903;SDS011;49000;50.698;13.322;2023-07-13T01:23:15;2.67;;;2.20;;
62903;SDS011;49000;50.698;13.322;2023-07-13T01:25:41;4.40;;;2.40;;
62903;SDS011;49000;50.698;13.322;2023-07-13T01:28:07;5.43;;;2.70;;
62903;SDS011;49000;50.698;13.322;2023-07-13T01:30:36;6.40;;;2.30;;
62903;SDS011;49000;50.698;13.322;2023-07-13T01:33:05;3.27;;;2.37;;
62903;SDS011;49000;50.698;13.322;2023-07-13T01:35:32;3.40;;;2.53;;
62903;SDS011;49000;50.698;13.322;2023-07-13T01:37:57;2.37;;;2.17;;
62903;SDS011;49000;50.698;13.322;2023-07-13T01:40:25;3.63;;;2.40;;
62903;SDS011;49000;50.698;13.322;2023-07-13T01:42:50;5.37;;;2.43;;
62903;SDS011;49000;50.698;13.322;2023-07-13T01:45:16;3.07;;;2.27;;
62903;SDS011;49000;50.698;13.322;2023-07-13T01:47:41;3.47;;;2.40;;
62903;SDS011;49000;50.698;13.322;2023-07-13T01:50:07;3.83;;;2.23;;
62903;SDS011;49000;50.698;13.322;2023-07-13T01:52:33;3.53;;;2.50;;
62903;SDS011;49000;50.698;13.322;2023-07-13T01:54:58;3.17;;;2.37;;
62903;SDS011;49000;50.698;13.322;2023-07-13T01:57:24;3.47;;;2.00;;
62903;SDS011;49000;50.698;13.322;2023-07-13T01:59:49;3.33;;;2.40;;
62903;SDS011;49000;50.698;13.322;2023-07-13T02:02:14;2.77;;;2.20;;
62903;SDS011;49000;50.698;13.322;2023-07-13T02:04:40;4.17;;;2.77;;
62903;SDS011;49000;50.698;13.322;2023-07-13T02:07:05;3.10;;;2.60;;
62903;SDS011;49000;50.698;13.322;2023-07-13T02:09:32;2.80;;;2.40;;
62903;SDS011;49000;50.698;13.322;2023-07-13T02:11:58;4.57;;;2.57;;
62903;SDS011;49000;50.698;13.322;2023-07-13T02:14:23;3.23;;;2.60;;
62903;SDS011;49000;50.698;13.322;2023-07-13T02:16:49;4.87;;;2.57;;
62903;SDS011;49000;50.698;13.322;2023-07-13T02:19:14;3.77;;;2.67;;
62903;SDS011;49000;50.698;13.322;2023-07-13T02:21:40;2.70;;;2.37;;
62903;SDS011;49000;50.698;13.322;2023-07-13T02:24:05;3.40;;;2.40;;
62903;SDS011;49000;50.698;13.322;2023-07-13T02:26:31;4.80;;;2.40;;
62903;SDS011;49000;50.698;13.322;2023-07-13T02:28:56;3.10;;;2.50;;
62903;SDS011;49000;50.698;13.322;2023-07-13T02:31:22;3.50;;;2.20;;
62903;SDS011;49000;50.698;13.322;2023-07-13T02:33:47;3.37;;;2.73;;
62903;SDS011;49000;50.698;13.322;2023-07-13T02:36:13;3.23;;;2.50;;
62903;SDS011;49000;50.698;13.322;2023-07-13T02:38:41;3.03;;;2.60;;
62903;SDS011;49000;50.698;13.322;2023-07-13T02:41:06;4.40;;;2.60;;
62903;SDS011;49000;50.698;13.322;2023-07-13T02:43:33;2.80;;;2.43;;
62903;SDS011;49000;50.698;13.322;2023-07-13T02:45:59;3.37;;;2.90;;
62903;SDS011;49000;50.698;13.322;2023-07-13T02:48:31;5.13;;;2.80;;
62903;SDS011;49000;50.698;13.322;2023-07-13T02:51:00;2.43;;;2.23;;
62903;SDS011;49000;50.698;13.322;2023-07-13T02:53:26;4.97;;;2.70;;
62903;SDS011;49000;50.698;13.322;2023-07-13T02:55:51;2.60;;;2.40;;
62903;SDS011;49000;50.698;13.322;2023-07-13T02:58:17;2.47;;;2.17;;
62903;SDS011;49000;50.698;13.322;2023-07-13T03:00:43;2.77;;;2.47;;
62903;SDS011;49000;50.698;13.322;2023-07-13T03:03:11;2.93;;;2.60;;
62903;SDS011;49000;50.698;13.322;2023-07-13T03:05:38;3.13;;;2.53;;
62903;SDS011;49000;50.698;13.322;2023-07-13T03:08:05;4.23;;;2.40;;
62903;SDS011;49000;50.698;13.322;2023-07-13T03:10:31;3.40;;;2.47;;
62903;SDS011;49000;50.698;13.322;2023-07-13T03:12:56;4.53;;;3.17;;
62903;SDS011;49000;50.698;13.322;2023-07-13T03:15:22;3.70;;;2.70;;
62903;SDS011;49000;50.698;13.322;2023-07-13T03:17:47;5.30;;;3.10;;
62903;SDS011;49000;50.698;13.322;2023-07-13T03:20:13;3.13;;;2.50;;
62903;SDS011;49000;50.698;13.322;2023-07-13T03:22:39;3.87;;;2.60;;
62903;SDS011;49000;50.698;13.322;2023-07-13T03:25:04;3.23;;;2.30;;
62903;SDS011;49000;50.698;13.322;2023-07-13T03:27:30;4.20;;;2.67;;
62903;SDS011;49000;50.698;13.322;2023-07-13T03:29:55;3.80;;;2.60;;
62903;SDS011;49000;50.698;13.322;2023-07-13T03:32:21;3.17;;;2.87;;
62903;SDS011;49000;50.698;13.322;2023-07-13T03:34:46;3.67;;;3.00;;
62903;SDS011;49000;50.698;13.322;2023-07-13T03:37:12;2.77;;;2.33;;
62903;SDS011;49000;50.698;13.322;2023-07-13T03:39:37;3.63;;;3.27;;
62903;SDS011;49000;50.698;13.322;2023-07-13T03:42:03;2.87;;;2.60;;
62903;SDS011;49000;50.698;13.322;2023-07-13T03:44:29;4.40;;;2.37;;
62903;SDS011;49000;50.698;13.322;2023-07-13T03:46:54;3.63;;;2.83;;
62903;SDS011;49000;50.698;13.322;2023-07-13T03:49:20;2.87;;;2.40;;
62903;SDS011;49000;50.698;13.322;2023-07-13T03:51:45;3.13;;;2.77;;
62903;SDS011;49000;50.698;13.322;2023-07-13T03:54:11;5.03;;;2.77;;
62903;SDS011;49000;50.698;13.322;2023-07-13T03:56:36;3.33;;;2.63;;
62903;SDS011;49000;50.698;13.322;2023-07-13T03:59:02;3.87;;;2.80;;
62903;SDS011;49000;50.698;13.322;2023-07-13T04:01:27;3.07;;;2.67;;
62903;SDS011;49000;50.698;13.322;2023-07-13T04:03:53;3.03;;;2.73;;
62903;SDS011;49000;50.698;13.322;2023-07-13T04:06:20;3.93;;;2.90;;
62903;SDS011;49000;50.698;13.322;2023-07-13T04:08:48;3.10;;;2.80;;
62903;SDS011;49000;50.698;13.322;2023-07-13T04:11:15;2.87;;;2.60;;
62903;SDS011;49000;50.698;13.322;2023-07-13T04:13:41;3.43;;;2.80;;
62903;SDS011;49000;50.698;13.322;2023-07-13T04:16:06;3.80;;;2.87;;
62903;SDS011;49000;50.698;13.322;2023-07-13T04:18:32;4.97;;;2.90;;
62903;SDS011;49000;50.698;13.322;2023-07-13T04:20:57;2.37;;;2.17;;
62903;SDS011;49000;50.698;13.322;2023-07-13T04:23:23;3.17;;;2.47;;
62903;SDS011;49000;50.698;13.322;2023-07-13T04:25:49;5.83;;;2.90;;
62903;SDS011;49000;50.698;13.322;2023-07-13T04:28:21;3.30;;;2.80;;
62903;SDS011;49000;50.698;13.322;2023-07-13T04:30:49;3.43;;;2.93;;
62903;SDS011;49000;50.698;13.322;2023-07-13T04:33:14;4.33;;;3.20;;
62903;SDS011;49000;50.698;13.322;2023-07-13T04:35:42;3.30;;;2.80;;
62903;SDS011;49000;50.698;13.322;2023-07-13T04:38:11;4.03;;;2.90;;
62903;SDS011;49000;50.698;13.322;2023-07-13T04:40:37;3.37;;;2.67;;
62903;SDS011;49000;50.698;13.322;2023-07-13T04:43:02;3.97;;;2.53;;
62903;SDS011;49000;50.698;13.322;2023-07-13T04:45:28;4.77;;;2.47;;
62903;SDS011;49000;50.698;13.322;2023-07-13T04:47:54;4.63;;;2.70;;
62903;SDS011;49000;50.698;13.322;2023-07-13T04:50:19;3.57;;;3.20;;
62903;SDS011;49000;50.698;13.322;2023-07-13T04:52:48;2.67;;;2.47;;
62903;SDS011;49000;50.698;13.322;2023-07-13T04:55:14;2.70;;;2.50;;
62903;SDS011;49000;50.698;13.322;2023-07-13T04:57:40;2.70;;;2.50;;
62903;SDS011;49000;50.698;13.322;2023-07-13T05:00:06;4.30;;;2.30;;
62903;SDS011;49000;50.698;13.322;2023-07-13T05:02:32;4.97;;;2.83;;
62903;SDS011;49000;50.698;13.322;2023-07-13T05:04:59;4.60;;;2.83;;
62903;SDS011;49000;50.698;13.322;2023-07-13T05:07:25;3.70;;;2.33;;
62903;SDS011;49000;50.698;13.322;2023-07-13T05:09:51;4.27;;;3.20;;
62903;SDS011;49000;50.698;13.322;2023-07-13T05:12:16;3.43;;;2.50;;
62903;SDS011;49000;50.698;13.322;2023-07-13T05:14:42;2.60;;;2.40;;
62903;SDS011;49000;50.698;13.322;2023-07-13T05:17:07;3.07;;;2.77;;
62903;SDS011;49000;50.698;13.322;2023-07-13T05:19:33;3.23;;;2.90;;
62903;SDS011;49000;50.698;13.322;2023-07-13T05:21:59;4.47;;;3.30;;
62903;SDS011;49000;50.698;13.322;2023-07-13T05:24:25;3.90;;;3.00;;
62903;SDS011;49000;50.698;13.322;2023-07-13T05:26:50;3.00;;;2.80;;
62903;SDS011;49000;50.698;13.322;2023-07-13T05:29:16;3.67;;;3.30;;
62903;SDS011;49000;50.698;13.322;2023-07-13T05:31:41;4.20;;;3.90;;
62903;SDS011;49000;50.698;13.322;2023-07-13T05:34:07;7.13;;;3.90;;
62903;SDS011;49000;50.698;13.322;2023-07-13T05:36:32;3.10;;;2.63;;
62903;SDS011;49000;50.698;13.322;2023-07-13T05:38:58;3.93;;;3.63;;
62903;SDS011;49000;50.698;13.322;2023-07-13T05:41:23;5.30;;;3.58;;
62903;SDS011;49000;50.698;13.322;2023-07-13T05:43:48;4.57;;;4.17;;
62903;SDS011;49000;50.698;13.322;2023-07-13T05:46:14;4.20;;;3.80;;
62903;SDS011;49000;50.698;13.322;2023-07-13T05:48:39;6.07;;;4.10;;
62903;SDS011;49000;50.698;13.322;2023-07-13T05:51:05;6.75;;;3.80;;
62903;SDS011;49000;50.698;13.322;2023-07-13T05:53:30;4.05;;;3.60;;
62903;SDS011;49000;50.698;13.322;2023-07-13T05:55:56;4.03;;;3.50;;
62903;SDS011;49000;50.698;13.322;2023-07-13T05:58:21;5.70;;;3.55;;
62903;SDS011;49000;50.698;13.322;2023-07-13T06:00:47;6.55;;;3.97;;
62903;SDS011;49000;50.698;13.322;2023-07-13T06:03:14;6.38;;;3.97;;
62903;SDS011;49000;50.698;13.322;2023-07-13T06:05:39;4.07;;;3.67;;
62903;SDS011;49000;50.698;13.322;2023-07-13T06:08:06;3.92;;;3.63;;
62903;SDS011;49000;50.698;13.322;2023-07-13T06:10:32;4.88;;;3.80;;
62903;SDS011;49000;50.698;13.322;2023-07-13T06:13:01;4.25;;;3.85;;
62903;SDS011;49000;50.698;13.322;2023-07-13T06:15:28;4.32;;;3.85;;
62903;SDS011;49000;50.698;13.322;2023-07-13T06:17:53;3.95;;;3.65;;
62903;SDS011;49000;50.698;13.322;2023-07-13T06:20:19;4.10;;;3.70;;
62903;SDS011;49000;50.698;13.322;2023-07-13T06:22:44;4.00;;;3.65;;
62903;SDS011;49000;50.698;13.322;2023-07-13T06:25:10;4.72;;;4.10;;
62903;SDS011;49000;50.698;13.322;2023-07-13T06:27:35;3.70;;;3.40;;
62903;SDS011;49000;50.698;13.322;2023-07-13T06:30:01;3.42;;;3.08;;
62903;SDS011;49000;50.698;13.322;2023-07-13T06:32:26;4.03;;;3.60;;
62903;SDS011;49000;50.698;13.322;2023-07-13T06:34:52;4.75;;;3.42;;
62903;SDS011;49000;50.698;13.322;2023-07-13T06:37:17;3.65;;;3.35;;
62903;SDS011;49000;50.698;13.322;2023-07-13T06:39:43;3.80;;;2.95;;
62903;SDS011;49000;50.698;13.322;2023-07-13T06:42:09;3.65;;;3.35;;
62903;SDS011;49000;50.698;13.322;2023-07-13T06:44:34;4.13;;;3.72;;
62903;SDS011;49000;50.698;13.322;2023-07-13T06:47:00;4.25;;;3.55;;
62903;SDS011;49000;50.698;13.322;2023-07-13T06:49:25;4.65;;;2.97;;
62903;SDS011;49000;50.698;13.322;2023-07-13T06:51:51;5.05;;;3.00;;
62903;SDS011;49000;50.698;13.322;2023-07-13T06:54:16;3.45;;;2.70;;
62903;SDS011;49000;50.698;13.322;2023-07-13T06:56:42;3.72;;;3.17;;
62903;SDS011;49000;50.698;13.322;2023-07-13T06:59:07;4.38;;;3.10;;
62903;SDS011;49000;50.698;13.322;2023-07-13T07:01:33;4.40;;;3.67;;
62903;SDS011;49000;50.698;13.322;2023-07-13T07:03:58;4.40;;;2.92;;
62903;SDS011;49000;50.698;13.322;2023-07-13T07:06:24;3.67;;;2.92;;
62903;SDS011;49000;50.698;13.322;2023-07-13T07:08:50;6.90;;;2.90;;
62903;SDS011;49000;50.698;13.322;2023-07-13T07:11:18;3.70;;;2.88;;
62903;SDS011;49000;50.698;13.322;2023-07-13T07:13:48;2.88;;;2.60;;
62903;SDS011;49000;50.698;13.322;2023-07-13T07:16:14;4.55;;;2.80;;
62903;SDS011;49000;50.698;13.322;2023-07-13T07:18:40;3.55;;;2.60;;
62903;SDS011;49000;50.698;13.322;2023-07-13T07:21:05;5.20;;;2.75;;
62903;SDS011;49000;50.698;13.322;2023-07-13T07:23:31;4.63;;;2.67;;
62903;SDS011;49000;50.698;13.322;2023-07-13T07:25:57;3.65;;;2.40;;
62903;SDS011;49000;50.698;13.322;2023-07-13T07:28:22;2.97;;;2.40;;
62903;SDS011;49000;50.698;13.322;2023-07-13T07:30:48;2.53;;;2.33;;
62903;SDS011;49000;50.698;13.322;2023-07-13T07:33:17;3.35;;;2.83;;
62903;SDS011;49000;50.698;13.322;2023-07-13T07:35:42;3.90;;;2.33;;
62903;SDS011;49000;50.698;13.322;2023-07-13T07:38:08;3.30;;;2.80;;
62903;SDS011;49000;50.698;13.322;2023-07-13T07:40:36;4.32;;;2.53;;
62903;SDS011;49000;50.698;13.322;2023-07-13T07:43:02;3.85;;;2.50;;
62903;SDS011;49000;50.698;13.322;2023-07-13T07:45:28;3.45;;;2.42;;
62903;SDS011;49000;50.698;13.322;2023-07-13T07:47:53;7.13;;;2.90;;
62903;SDS011;49000;50.698;13.322;2023-07-13T07:50:23;3.85;;;2.60;;
62903;SDS011;49000;50.698;13.322;2023-07-13T07:52:49;3.67;;;2.45;;
62903;SDS011;49000;50.698;13.322;2023-07-13T07:55:15;3.95;;;2.20;;
62903;SDS011;49000;50.698;13.322;2023-07-13T07:57:40;5.00;;;2.78;;
62903;SDS011;49000;50.698;13.322;2023-07-13T08:00:06;3.30;;;2.85;;
62903;SDS011;49000;50.698;13.322;2023-07-13T08:02:32;4.50;;;2.58;;
62903;SDS011;49000;50.698;13.322;2023-07-13T08:04:58;2.97;;;2.45;;
62903;SDS011;49000;50.698;13.322;2023-07-13T08:07:23;4.13;;;2.25;;
62903;SDS011;49000;50.698;13.322;2023-07-13T08:09:51;2.47;;;1.98;;
62903;SDS011;49000;50.698;13.322;2023-07-13T08:12:17;2.92;;;2.28;;
62903;SDS011;49000;50.698;13.322;2023-07-13T08:14:43;2.42;;;2.08;;
62903;SDS011;49000;50.698;13.322;2023-07-13T08:17:09;3.53;;;2.40;;
62903;SDS011;49000;50.698;13.322;2023-07-13T08:19:34;2.50;;;2.10;;
62903;SDS011;49000;50.698;13.322;2023-07-13T08:21:59;3.72;;;2.17;;
62903;SDS011;49000;50.698;13.322;2023-07-13T08:24:25;3.13;;;2.40;;
62903;SDS011;49000;50.698;13.322;2023-07-13T08:26:51;2.28;;;2.03;;
62903;SDS011;49000;50.698;13.322;2023-07-13T08:29:17;2.40;;;1.90;;
62903;SDS011;49000;50.698;13.322;2023-07-13T08:31:42;3.20;;;2.42;;
62903;SDS011;49000;50.698;13.322;2023-07-13T08:34:08;2.50;;;2.30;;
62903;SDS011;49000;50.698;13.322;2023-07-13T08:36:33;6.07;;;2.20;;
62903;SDS011;49000;50.698;13.322;2023-07-13T08:38:59;2.85;;;1.90;;
62903;SDS011;49000;50.698;13.322;2023-07-13T08:41:24;2.30;;;2.10;;
62903;SDS011;49000;50.698;13.322;2023-07-13T08:43:51;2.42;;;1.73;;
62903;SDS011;49000;50.698;13.322;2023-07-13T08:46:55;3.28;;;2.10;;
62903;SDS011;49000;50.698;13.322;2023-07-13T08:49:17;3.45;;;2.08;;
62903;SDS011;49000;50.698;13.322;2023-07-13T08:51:52;1.98;;;1.67;;
62903;SDS011;49000;50.698;13.322;2023-07-13T08:57:00;3.63;;;1.77;;
62903;SDS011;49000;50.698;13.322;2023-07-13T08:59:34;4.07;;;1.67;;
62903;SDS011;49000;50.698;13.322;2023-07-13T09:05:08;4.95;;;2.00;;
62903;SDS011;49000;50.698;13.322;2023-07-13T09:08:02;2.95;;;1.85;;
62903;SDS011;49000;50.698;13.322;2023-07-13T09:10:45;2.42;;;1.77;;
62903;SDS011;49000;50.698;13.322;2023-07-13T09:16:18;2.65;;;1.38;;
62903;SDS011;49000;50.698;13.322;2023-07-13T09:18:48;2.58;;;1.55;;
62903;SDS011;49000;50.698;13.322;2023-07-13T09:21:21;2.75;;;1.77;;
62903;SDS011;49000;50.698;13.322;2023-07-13T09:23:58;3.03;;;1.80;;
62903;SDS011;49000;50.698;13.322;2023-07-13T09:26:26;3.13;;;1.60;;
62903;SDS011;49000;50.698;13.322;2023-07-13T09:28:56;3.08;;;2.00;;
62903;SDS011;49000;50.698;13.322;2023-07-13T09:31:33;3.58;;;1.92;;
62903;SDS011;49000;50.698;13.322;2023-07-13T09:34:06;2.85;;;2.03;;
62903;SDS011;49000;50.698;13.322;2023-07-13T09:36:35;4.40;;;1.95;;
62903;SDS011;49000;50.698;13.322;2023-07-13T09:39:14;4.05;;;2.22;;
62903;SDS011;49000;50.698;13.322;2023-07-13T09:41:54;3.63;;;2.25;;
62903;SDS011;49000;50.698;13.322;2023-07-13T09:44:29;3.45;;;2.15;;
62903;SDS011;49000;50.698;13.322;2023-07-13T09:47:00;5.93;;;2.22;;
62903;SDS011;49000;50.698;13.322;2023-07-13T09:49:27;3.88;;;2.53;;
62903;SDS011;49000;50.698;13.322;2023-07-13T09:51:58;4.68;;;2.40;;
62903;SDS011;49000;50.698;13.322;2023-07-13T09:54:34;4.70;;;1.80;;
62903;SDS011;49000;50.698;13.322;2023-07-13T09:57:01;3.05;;;1.70;;
62903;SDS011;49000;50.698;13.322;2023-07-13T09:59:29;3.97;;;1.98;;
62903;SDS011;49000;50.698;13.322;2023-07-13T10:01:56;4.43;;;2.00;;
62903;SDS011;49000;50.698;13.322;2023-07-13T10:04:26;4.35;;;2.03;;
62903;SDS011;49000;50.698;13.322;2023-07-13T10:07:06;4.55;;;1.80;;
62903;SDS011;49000;50.698;13.322;2023-07-13T10:09:33;2.90;;;2.13;;
62903;SDS011;49000;50.698;13.322;2023-07-13T10:11:59;1.73;;;1.50;;
62903;SDS011;49000;50.698;13.322;2023-07-13T10:14:25;3.67;;;2.47;;
62903;SDS011;49000;50.698;13.322;2023-07-13T10:16:52;2.95;;;1.90;;
62903;SDS011;49000;50.698;13.322;2023-07-13T10:19:26;4.43;;;2.03;;
62903;SDS011;49000;50.698;13.322;2023-07-13T10:21:56;2.35;;;2.08;;
62903;SDS011;49000;50.698;13.322;2023-07-13T10:24:27;4.63;;;2.20;;
62903;SDS011;49000;50.698;13.322;2023-07-13T10:27:08;2.35;;;1.90;;
62903;SDS011;49000;50.698;13.322;2023-07-13T10:29:55;3.42;;;1.70;;
62903;SDS011;49000;50.698;13.322;2023-07-13T10:32:26;5.97;;;1.90;;
62903;SDS011;49000;50.698;13.322;2023-07-13T10:34:52;3.05;;;2.05;;
62903;SDS011;49000;50.698;13.322;2023-07-13T10:37:24;5.97;;;2.03;;
62903;SDS011;49000;50.698;13.322;2023-07-13T10:39:54;2.60;;;1.90;;
62903;SDS011;49000;50.698;13.322;2023-07-13T10:42:27;3.13;;;1.83;;
62903;SDS011;49000;50.698;13.322;2023-07-13T10:44:57;3.50;;;1.77;;
62903;SDS011;49000;50.698;13.322;2023-07-13T10:47:22;3.55;;;2.00;;
62903;SDS011;49000;50.698;13.322;2023-07-13T10:49:50;3.58;;;1.70;;
62903;SDS011;49000;50.698;13.322;2023-07-13T10:55:31;4.90;;;1.65;;
62903;SDS011;49000;50.698;13.322;2023-07-13T10:58:11;3.22;;;1.70;;
62903;SDS011;49000;50.698;13.322;2023-07-13T11:00:43;7.78;;;1.73;;
62903;SDS011;49000;50.698;13.322;2023-07-13T11:03:22;4.15;;;1.80;;
62903;SDS011;49000;50.698;13.322;2023-07-13T11:06:03;4.45;;;1.75;;
62903;SDS011;49000;50.698;13.322;2023-07-13T11:08:36;3.35;;;1.58;;
62903;SDS011;49000;50.698;13.322;2023-07-13T11:11:04;3.83;;;1.40;;
62903;SDS011;49000;50.698;13.322;2023-07-13T11:21:16;4.78;;;1.60;;
62903;SDS011;49000;50.698;13.322;2023-07-13T11:23:53;3.40;;;1.63;;
62903;SDS011;49000;50.698;13.322;2023-07-13T11:26:38;3.80;;;1.95;;
62903;SDS011;49000;50.698;13.322;2023-07-13T11:31:40;5.03;;;1.75;;
62903;SDS011;49000;50.698;13.322;2023-07-13T11:34:11;5.07;;;1.92;;
62903;SDS011;49000;50.698;13.322;2023-07-13T11:36:38;5.13;;;2.03;;
62903;SDS011;49000;50.698;13.322;2023-07-13T11:39:19;5.85;;;2.10;;
62903;SDS011;49000;50.698;13.322;2023-07-13T11:41:57;2.47;;;1.70;;
62903;SDS011;49000;50.698;13.322;2023-07-13T11:44:26;3.22;;;1.58;;
62903;SDS011;49000;50.698;13.322;2023-07-13T11:46:55;5.75;;;1.85;;
62903;SDS011;49000;50.698;13.322;2023-07-13T11:49:25;3.38;;;1.58;;
62903;SDS011;49000;50.698;13.322;2023-07-13T11:51:52;4.95;;;2.05;;
62903;SDS011;49000;50.698;13.322;2023-07-13T11:54:31;3.58;;;1.63;;
62903;SDS011;49000;50.698;13.322;2023-07-13T11:57:02;3.33;;;2.17;;
62903;SDS011;49000;50.698;13.322;2023-07-13T11:59:42;4.75;;;1.83;;
62903;SDS011;49000;50.698;13.322;2023-07-13T12:02:13;3.55;;;1.70;;
62903;SDS011;49000;50.698;13.322;2023-07-13T12:04:42;1.70;;;1.50;;
62903;SDS011;49000;50.698;13.322;2023-07-13T12:07:14;2.88;;;1.98;;
62903;SDS011;49000;50.698;13.322;2023-07-13T12:09:41;3.53;;;1.85;;
62903;SDS011;49000;50.698;13.322;2023-07-13T12:12:10;2.35;;;1.52;;
62903;SDS011;49000;50.698;13.322;2023-07-13T12:14:37;3.08;;;1.75;;
62903;SDS011;49000;50.698;13.322;2023-07-13T12:17:05;4.72;;;1.98;;
62903;SDS011;49000;50.698;13.322;2023-07-13T12:19:36;3.03;;;1.83;;
62903;SDS011;49000;50.698;13.322;2023-07-13T12:22:02;3.90;;;1.70;;
62903;SDS011;49000;50.698;13.322;2023-07-13T12:24:27;3.42;;;1.48;;
62903;SDS011;49000;50.698;13.322;2023-07-13T12:26:54;2.65;;;1.50;;
62903;SDS011;49000;50.698;13.322;2023-07-13T12:29:25;2.33;;;1.73;;
62903;SDS011;49000;50.698;13.322;2023-07-13T12:31:51;3.78;;;1.80;;
62903;SDS011;49000;50.698;13.322;2023-07-13T12:34:18;3.75;;;1.92;;
62903;SDS011;49000;50.698;13.322;2023-07-13T12:41:43;4.32;;;1.70;;
62903;SDS011;49000;50.698;13.322;2023-07-13T12:44:27;2.22;;;1.75;;
62903;SDS011;49000;50.698;13.322;2023-07-13T12:46:58;3.95;;;1.80;;
62903;SDS011;49000;50.698;13.322;2023-07-13T12:49:30;3.65;;;1.80;;
62903;SDS011;49000;50.698;13.322;2023-07-13T12:52:00;2.65;;;1.90;;
62903;SDS011;49000;50.698;13.322;2023-07-13T12:54:27;3.20;;;1.70;;
62903;SDS011;49000;50.698;13.322;2023-07-13T12:56:54;2.83;;;1.60;;
62903;SDS011;49000;50.698;13.322;2023-07-13T12:59:23;3.70;;;1.67;;
62903;SDS011;49000;50.698;13.322;2023-07-13T13:01:54;3.92;;;1.58;;
62903;SDS011;49000;50.698;13.322;2023-07-13T13:04:19;2.78;;;1.60;;
62903;SDS011;49000;50.698;13.322;2023-07-13T13:06:46;3.95;;;1.85;;
62903;SDS011;49000;50.698;13.322;2023-07-13T13:09:14;3.28;;;1.42;;
62903;SDS011;49000;50.698;13.322;2023-07-13T13:11:41;4.03;;;1.65;;
62903;SDS011;49000;50.698;13.322;2023-07-13T13:14:07;4.28;;;1.85;;
62903;SDS011;49000;50.698;13.322;2023-07-13T13:16:35;3.08;;;1.60;;
62903;SDS011;49000;50.698;13.322;2023-07-13T13:19:15;2.30;;;1.45;;
62903;SDS011;49000;50.698;13.322;2023-07-13T13:21:43;8.38;;;2.00;;
62903;SDS011;49000;50.698;13.322;2023-07-13T13:24:14;2.80;;;1.60;;
62903;SDS011;49000;50.698;13.322;2023-07-13T13:26:42;3.50;;;1.65;;
62903;SDS011;49000;50.698;13.322;2023-07-13T13:29:12;4.45;;;1.48;;
62903;SDS011;49000;50.698;13.322;2023-07-13T13:31:39;3.05;;;1.55;;
62903;SDS011;49000;50.698;13.322;2023-07-13T13:34:07;3.60;;;1.70;;
62903;SDS011;49000;50.698;13.322;2023-07-13T13:36:36;3.28;;;1.60;;
62903;SDS011;49000;50.698;13.322;2023-07-13T13:39:05;4.15;;;1.85;;
62903;SDS011;49000;50.698;13.322;2023-07-13T13:41:41;3.28;;;1.50;;
62903;SDS011;49000;50.698;13.322;2023-07-13T13:44:08;4.65;;;1.60;;
62903;SDS011;49000;50.698;13.322;2023-07-13T13:46:34;4.10;;;1.70;;
62903;SDS011;49000;50.698;13.322;2023-07-13T13:49:00;2.25;;;1.60;;
62903;SDS011;49000;50.698;13.322;2023-07-13T13:51:26;2.60;;;1.85;;
62903;SDS011;49000;50.698;13.322;2023-07-13T13:53:51;2.30;;;1.50;;
62903;SDS011;49000;50.698;13.322;2023-07-13T13:56:18;4.57;;;1.50;;
62903;SDS011;49000;50.698;13.322;2023-07-13T13:58:44;4.47;;;1.80;;
62903;SDS011;49000;50.698;13.322;2023-07-13T14:01:18;3.53;;;1.80;;
62903;SDS011;49000;50.698;13.322;2023-07-13T14:03:45;3.28;;;1.40;;
62903;SDS011;49000;50.698;13.322;2023-07-13T14:06:13;4.93;;;1.90;;
62903;SDS011;49000;50.698;13.322;2023-07-13T14:08:40;4.40;;;1.75;;
62903;SDS011;49000;50.698;13.322;2023-07-13T14:11:07;3.67;;;1.80;;
62903;SDS011;49000;50.698;13.322;2023-07-13T14:13:39;2.55;;;1.70;;
62903;SDS011;49000;50.698;13.322;2023-07-13T14:16:11;3.60;;;1.67;;
62903;SDS011;49000;50.698;13.322;2023-07-13T14:18:42;2.58;;;1.67;;
62903;SDS011;49000;50.698;13.322;2023-07-13T14:21:15;6.43;;;1.90;;
62903;SDS011;49000;50.698;13.322;2023-07-13T14:23:43;3.83;;;1.75;;
62903;SDS011;49000;50.698;13.322;2023-07-13T14:26:11;3.58;;;1.60;;
62903;SDS011;49000;50.698;13.322;2023-07-13T14:28:38;3.08;;;1.90;;
62903;SDS011;49000;50.698;13.322;2023-07-13T14:31:12;2.42;;;1.70;;
62903;SDS011;49000;50.698;13.322;2023-07-13T14:33:39;1.92;;;1.50;;
62903;SDS011;49000;50.698;13.322;2023-07-13T14:38:54;3.22;;;1.50;;
62903;SDS011;49000;50.698;13.322;2023-07-13T14:41:19;2.22;;;1.25;;
62903;SDS011;49000;50.698;13.322;2023-07-13T14:43:46;1.92;;;1.73;;
62903;SDS011;49000;50.698;13.322;2023-07-13T14:46:46;4.90;;;1.70;;
62903;SDS011;49000;50.698;13.322;2023-07-13T14:51:55;2.10;;;1.55;;
62903;SDS011;49000;50.698;13.322;2023-07-13T14:54:23;3.38;;;1.63;;
62903;SDS011;49000;50.698;13.322;2023-07-13T14:56:49;4.57;;;1.60;;
62903;SDS011;49000;50.698;13.322;2023-07-13T14:59:15;3.45;;;1.70;;
62903;SDS011;49000;50.698;13.322;2023-07-13T15:01:44;2.33;;;1.67;;
62903;SDS011;49000;50.698;13.322;2023-07-13T15:04:10;2.78;;;1.55;;
62903;SDS011;49000;50.698;13.322;2023-07-13T15:09:25;4.80;;;1.50;;
62903;SDS011;49000;50.698;13.322;2023-07-13T15:11:52;2.83;;;1.40;;
62903;SDS011;49000;50.698;13.322;2023-07-13T15:14:19;1.80;;;1.30;;
62903;SDS011;49000;50.698;13.322;2023-07-13T15:16:45;2.22;;;1.40;;
62903;SDS011;49000;50.698;13.322;2023-07-13T15:19:13;1.80;;;1.38;;